sensor_id;sensor_type;location;lat;lon;timestamp;temperature;humidity
17687;DHT22;8962;52.538;13.266;2023-05-03T00:00:13;9.10;99.90
17687;DHT22;8962;52.538;13.266;2023-05-03T00:02:43;9.10;99.90
17687;DHT22;8962;52.538;13.266;2023-05-03T00:05:11;9.00;99.90
17687;DHT22;8962;52.538;13.266;2023-05-03T00:07:41;8.90;99.90
17687;DHT22;8962;52.538;13.266;2023-05-03T00:10:09;8.90;99.90
17687;DHT22;8962;52.538;13.266;2023-05-03T00:12:38;8.80;99.90
17687;DHT22;8962;52.538;13.266;2023-05-03T00:15:07;8.80;99.90
17687;DHT22;8962;52.538;13.266;2023-05-03T00:17:35;8.70;99.90
17687;DHT22;8962;52.538;13.266;2023-05-03T00:20:05;8.70;99.90
17687;DHT22;8962;52.538;13.266;2023-05-03T00:22:33;8.70;99.90
17687;DHT22;8962;52.538;13.266;2023-05-03T00:25:01;8.60;99.90
17687;DHT22;8962;52.538;13.266;2023-05-03T00:27:30;8.60;99.90
17687;DHT22;8962;52.538;13.266;2023-05-03T00:29:58;8.50;99.90
17687;DHT22;8962;52.538;13.266;2023-05-03T00:32:25;8.50;99.90
17687;DHT22;8962;52.538;13.266;2023-05-03T00:34:53;8.40;99.90
17687;DHT22;8962;52.538;13.266;2023-05-03T00:37:23;8.30;99.90
17687;DHT22;8962;52.538;13.266;2023-05-03T00:39:51;8.30;99.90
17687;DHT22;8962;52.538;13.266;2023-05-03T00:42:18;8.30;99.90
17687;DHT22;8962;52.538;13.266;2023-05-03T00:44:45;8.30;99.90
17687;DHT22;8962;52.538;13.266;2023-05-03T00:47:14;8.20;99.90
17687;DHT22;8962;52.538;13.266;2023-05-03T00:49:41;8.20;99.90
17687;DHT22;8962;52.538;13.266;2023-05-03T00:52:12;8.20;99.90
17687;DHT22;8962;52.538;13.266;2023-05-03T00:54:44;8.10;99.90
17687;DHT22;8962;52.538;13.266;2023-05-03T00:57:11;8.10;99.90
17687;DHT22;8962;52.538;13.266;2023-05-03T00:59:38;8.00;99.90
17687;DHT22;8962;52.538;13.266;2023-05-03T01:02:05;7.90;99.90
17687;DHT22;8962;52.538;13.266;2023-05-03T01:04:34;7.90;99.90
17687;DHT22;8962;52.538;13.266;2023-05-03T01:07:09;7.80;99.90
17687;DHT22;8962;52.538;13.266;2023-05-03T01:09:48;7.80;99.90
17687;DHT22;8962;52.538;13.266;2023-05-03T01:12:27;7.70;99.90
17687;DHT22;8962;52.538;13.266;2023-05-03T01:15:03;7.70;99.90
17687;DHT22;8962;52.538;13.266;2023-05-03T01:17:38;7.60;99.90
17687;DHT22;8962;52.538;13.266;2023-05-03T01:20:07;7.50;99.90
17687;DHT22;8962;52.538;13.266;2023-05-03T01:22:45;7.50;99.90
17687;DHT22;8962;52.538;13.266;2023-05-03T01:25:14;7.40;99.90
17687;DHT22;8962;52.538;13.266;2023-05-03T01:27:42;7.40;99.90
17687;DHT22;8962;52.538;13.266;2023-05-03T01:30:10;7.30;99.90
17687;DHT22;8962;52.538;13.266;2023-05-03T01:32:45;7.30;99.90
17687;DHT22;8962;52.538;13.266;2023-05-03T01:35:21;7.30;99.90
17687;DHT22;8962;52.538;13.266;2023-05-03T01:37:50;7.30;99.90
17687;DHT22;8962;52.538;13.266;2023-05-03T01:40:20;7.20;99.90
17687;DHT22;8962;52.538;13.266;2023-05-03T01:42:49;7.20;99.90
17687;DHT22;8962;52.538;13.266;2023-05-03T01:45:17;7.20;99.90
17687;DHT22;8962;52.538;13.266;2023-05-03T01:47:45;7.10;99.90
17687;DHT22;8962;52.538;13.266;2023-05-03T01:50:13;7.00;99.90
17687;DHT22;8962;52.538;13.266;2023-05-03T01:52:40;7.00;99.90
17687;DHT22;8962;52.538;13.266;2023-05-03T01:55:08;7.00;99.90
17687;DHT22;8962;52.538;13.266;2023-05-03T01:57:37;6.90;99.90
17687;DHT22;8962;52.538;13.266;2023-05-03T02:00:05;6.90;99.90
17687;DHT22;8962;52.538;13.266;2023-05-03T02:02:38;6.80;99.90
17687;DHT22;8962;52.538;13.266;2023-05-03T02:05:05;6.80;99.90
17687;DHT22;8962;52.538;13.266;2023-05-03T02:07:33;6.80;99.90
17687;DHT22;8962;52.538;13.266;2023-05-03T02:10:00;6.70;99.90
17687;DHT22;8962;52.538;13.266;2023-05-03T02:12:27;6.70;99.90
17687;DHT22;8962;52.538;13.266;2023-05-03T02:14:59;6.70;99.90
17687;DHT22;8962;52.538;13.266;2023-05-03T02:17:30;6.60;99.90
17687;DHT22;8962;52.538;13.266;2023-05-03T02:20:04;6.60;99.90
17687;DHT22;8962;52.538;13.266;2023-05-03T02:22:34;6.50;99.90
17687;DHT22;8962;52.538;13.266;2023-05-03T02:25:03;6.40;99.90
17687;DHT22;8962;52.538;13.266;2023-05-03T02:27:31;6.40;99.90
17687;DHT22;8962;52.538;13.266;2023-05-03T02:30:03;6.40;99.90
17687;DHT22;8962;52.538;13.266;2023-05-03T02:32:37;6.30;99.90
17687;DHT22;8962;52.538;13.266;2023-05-03T02:35:07;6.30;99.90
17687;DHT22;8962;52.538;13.266;2023-05-03T02:37:34;6.30;99.90
17687;DHT22;8962;52.538;13.266;2023-05-03T02:40:08;6.30;99.90
17687;DHT22;8962;52.538;13.266;2023-05-03T02:42:35;6.30;99.90
17687;DHT22;8962;52.538;13.266;2023-05-03T02:45:07;6.20;99.90
17687;DHT22;8962;52.538;13.266;2023-05-03T02:47:34;6.20;99.90
17687;DHT22;8962;52.538;13.266;2023-05-03T02:50:01;6.20;99.90
17687;DHT22;8962;52.538;13.266;2023-05-03T02:52:32;6.10;99.90
17687;DHT22;8962;52.538;13.266;2023-05-03T02:54:59;6.10;99.90
17687;DHT22;8962;52.538;13.266;2023-05-03T02:57:27;6.10;99.90
17687;DHT22;8962;52.538;13.266;2023-05-03T02:59:56;6.00;99.90
17687;DHT22;8962;52.538;13.266;2023-05-03T03:02:25;6.00;99.90
17687;DHT22;8962;52.538;13.266;2023-05-03T03:04:52;5.90;99.90
17687;DHT22;8962;52.538;13.266;2023-05-03T03:07:19;5.90;99.90
17687;DHT22;8962;52.538;13.266;2023-05-03T03:09:46;5.90;99.90
17687;DHT22;8962;52.538;13.266;2023-05-03T03:12:13;5.80;99.90
17687;DHT22;8962;52.538;13.266;2023-05-03T03:14:41;5.80;99.90
17687;DHT22;8962;52.538;13.266;2023-05-03T03:17:10;5.80;99.90
17687;DHT22;8962;52.538;13.266;2023-05-03T03:19:39;5.80;99.90
17687;DHT22;8962;52.538;13.266;2023-05-03T03:22:06;5.70;99.90
17687;DHT22;8962;52.538;13.266;2023-05-03T03:24:34;5.70;99.90
17687;DHT22;8962;52.538;13.266;2023-05-03T03:27:03;5.70;99.90
17687;DHT22;8962;52.538;13.266;2023-05-03T03:29:31;5.70;99.90
17687;DHT22;8962;52.538;13.266;2023-05-03T03:32:00;5.70;99.90
17687;DHT22;8962;52.538;13.266;2023-05-03T03:34:28;5.70;99.90
17687;DHT22;8962;52.538;13.266;2023-05-03T03:36:57;5.70;99.90
17687;DHT22;8962;52.538;13.266;2023-05-03T03:39:26;5.70;99.90
17687;DHT22;8962;52.538;13.266;2023-05-03T03:41:54;5.70;99.90
17687;DHT22;8962;52.538;13.266;2023-05-03T03:44:21;5.70;99.90
17687;DHT22;8962;52.538;13.266;2023-05-03T03:46:49;5.70;99.90
17687;DHT22;8962;52.538;13.266;2023-05-03T03:49:17;5.60;99.90
17687;DHT22;8962;52.538;13.266;2023-05-03T03:51:45;5.60;99.90
17687;DHT22;8962;52.538;13.266;2023-05-03T03:54:13;5.60;99.90
17687;DHT22;8962;52.538;13.266;2023-05-03T03:56:45;5.60;99.90
17687;DHT22;8962;52.538;13.266;2023-05-03T03:59:12;5.50;99.90
17687;DHT22;8962;52.538;13.266;2023-05-03T04:01:40;5.50;99.90
17687;DHT22;8962;52.538;13.266;2023-05-03T04:04:08;5.50;99.90
17687;DHT22;8962;52.538;13.266;2023-05-03T04:06:37;5.50;99.90
17687;DHT22;8962;52.538;13.266;2023-05-03T04:09:08;5.50;99.90
17687;DHT22;8962;52.538;13.266;2023-05-03T04:11:38;5.50;99.90
17687;DHT22;8962;52.538;13.266;2023-05-03T04:14:06;5.50;99.90
17687;DHT22;8962;52.538;13.266;2023-05-03T04:16:34;5.50;99.90
17687;DHT22;8962;52.538;13.266;2023-05-03T04:19:03;5.60;99.90
17687;DHT22;8962;52.538;13.266;2023-05-03T04:21:34;5.50;99.90
17687;DHT22;8962;52.538;13.266;2023-05-03T04:24:02;5.50;99.90
17687;DHT22;8962;52.538;13.266;2023-05-03T04:26:30;5.60;99.90
17687;DHT22;8962;52.538;13.266;2023-05-03T04:29:05;5.60;99.90
17687;DHT22;8962;52.538;13.266;2023-05-03T04:31:34;5.60;99.90
17687;DHT22;8962;52.538;13.266;2023-05-03T04:34:01;5.60;99.90
17687;DHT22;8962;52.538;13.266;2023-05-03T04:36:29;5.60;99.90
17687;DHT22;8962;52.538;13.266;2023-05-03T04:38:58;5.60;99.90
17687;DHT22;8962;52.538;13.266;2023-05-03T04:41:25;5.70;99.90
17687;DHT22;8962;52.538;13.266;2023-05-03T04:43:53;5.70;99.90
17687;DHT22;8962;52.538;13.266;2023-05-03T04:46:22;5.80;99.90
17687;DHT22;8962;52.538;13.266;2023-05-03T04:48:51;5.80;99.90
17687;DHT22;8962;52.538;13.266;2023-05-03T04:51:18;5.80;99.90
17687;DHT22;8962;52.538;13.266;2023-05-03T04:53:47;5.80;99.90
17687;DHT22;8962;52.538;13.266;2023-05-03T04:56:18;5.80;99.90
17687;DHT22;8962;52.538;13.266;2023-05-03T04:58:51;5.80;99.90
17687;DHT22;8962;52.538;13.266;2023-05-03T05:01:19;5.90;99.90
17687;DHT22;8962;52.538;13.266;2023-05-03T05:03:54;5.90;99.90
17687;DHT22;8962;52.538;13.266;2023-05-03T05:06:26;6.00;99.90
17687;DHT22;8962;52.538;13.266;2023-05-03T05:08:54;6.00;99.90
17687;DHT22;8962;52.538;13.266;2023-05-03T05:11:21;6.00;99.90
17687;DHT22;8962;52.538;13.266;2023-05-03T05:13:48;6.10;99.90
17687;DHT22;8962;52.538;13.266;2023-05-03T05:16:16;6.20;99.90
17687;DHT22;8962;52.538;13.266;2023-05-03T05:18:49;6.20;99.90
17687;DHT22;8962;52.538;13.266;2023-05-03T05:21:19;6.30;99.90
17687;DHT22;8962;52.538;13.266;2023-05-03T05:23:46;6.40;99.90
17687;DHT22;8962;52.538;13.266;2023-05-03T05:26:13;6.30;99.90
17687;DHT22;8962;52.538;13.266;2023-05-03T05:28:41;6.40;99.90
17687;DHT22;8962;52.538;13.266;2023-05-03T05:31:08;6.40;99.90
17687;DHT22;8962;52.538;13.266;2023-05-03T05:33:36;6.50;99.90
17687;DHT22;8962;52.538;13.266;2023-05-03T05:36:07;6.50;99.90
17687;DHT22;8962;52.538;13.266;2023-05-03T05:38:35;6.50;99.90
17687;DHT22;8962;52.538;13.266;2023-05-03T05:41:03;6.60;99.90
17687;DHT22;8962;52.538;13.266;2023-05-03T05:43:30;6.60;99.90
17687;DHT22;8962;52.538;13.266;2023-05-03T05:45:58;6.70;99.90
17687;DHT22;8962;52.538;13.266;2023-05-03T05:48:26;6.80;99.90
17687;DHT22;8962;52.538;13.266;2023-05-03T05:50:54;6.80;99.90
17687;DHT22;8962;52.538;13.266;2023-05-03T05:53:21;6.90;99.90
17687;DHT22;8962;52.538;13.266;2023-05-03T05:56:00;7.10;99.90
17687;DHT22;8962;52.538;13.266;2023-05-03T05:58:31;7.10;99.90
17687;DHT22;8962;52.538;13.266;2023-05-03T06:00:58;7.10;99.90
17687;DHT22;8962;52.538;13.266;2023-05-03T06:03:28;7.20;99.90
17687;DHT22;8962;52.538;13.266;2023-05-03T06:05:57;7.30;99.90
17687;DHT22;8962;52.538;13.266;2023-05-03T06:08:28;7.30;99.90
17687;DHT22;8962;52.538;13.266;2023-05-03T06:10:56;7.40;99.90
17687;DHT22;8962;52.538;13.266;2023-05-03T06:13:26;7.50;99.90
17687;DHT22;8962;52.538;13.266;2023-05-03T06:15:54;7.60;99.90
17687;DHT22;8962;52.538;13.266;2023-05-03T06:18:23;7.70;99.90
17687;DHT22;8962;52.538;13.266;2023-05-03T06:20:51;7.80;99.90
17687;DHT22;8962;52.538;13.266;2023-05-03T06:23:20;8.00;99.90
17687;DHT22;8962;52.538;13.266;2023-05-03T06:25:47;8.10;99.90
17687;DHT22;8962;52.538;13.266;2023-05-03T06:28:17;8.20;99.90
17687;DHT22;8962;52.538;13.266;2023-05-03T06:30:47;8.30;99.90
17687;DHT22;8962;52.538;13.266;2023-05-03T06:33:15;8.50;99.90
17687;DHT22;8962;52.538;13.266;2023-05-03T06:35:45;8.60;99.90
17687;DHT22;8962;52.538;13.266;2023-05-03T06:38:16;8.60;99.90
17687;DHT22;8962;52.538;13.266;2023-05-03T06:40:44;8.60;99.90
17687;DHT22;8962;52.538;13.266;2023-05-03T06:43:13;8.70;99.90
17687;DHT22;8962;52.538;13.266;2023-05-03T06:45:45;8.80;99.90
17687;DHT22;8962;52.538;13.266;2023-05-03T06:48:13;9.00;99.90
17687;DHT22;8962;52.538;13.266;2023-05-03T06:50:40;9.20;99.90
17687;DHT22;8962;52.538;13.266;2023-05-03T06:53:07;9.20;99.90
17687;DHT22;8962;52.538;13.266;2023-05-03T06:55:35;9.50;99.90
17687;DHT22;8962;52.538;13.266;2023-05-03T06:58:02;9.70;99.90
17687;DHT22;8962;52.538;13.266;2023-05-03T07:00:34;10.00;99.90
17687;DHT22;8962;52.538;13.266;2023-05-03T07:03:05;10.00;99.90
17687;DHT22;8962;52.538;13.266;2023-05-03T07:05:32;10.00;99.90
17687;DHT22;8962;52.538;13.266;2023-05-03T07:08:00;10.00;99.90
17687;DHT22;8962;52.538;13.266;2023-05-03T07:10:28;10.00;99.90
17687;DHT22;8962;52.538;13.266;2023-05-03T07:12:55;10.10;99.90
17687;DHT22;8962;52.538;13.266;2023-05-03T07:15:22;10.20;99.90
17687;DHT22;8962;52.538;13.266;2023-05-03T07:17:50;10.50;99.90
17687;DHT22;8962;52.538;13.266;2023-05-03T07:20:18;10.50;99.90
17687;DHT22;8962;52.538;13.266;2023-05-03T07:22:45;10.60;99.90
17687;DHT22;8962;52.538;13.266;2023-05-03T07:25:12;10.60;99.90
17687;DHT22;8962;52.538;13.266;2023-05-03T07:27:42;10.60;99.90
17687;DHT22;8962;52.538;13.266;2023-05-03T07:30:10;10.70;99.90
17687;DHT22;8962;52.538;13.266;2023-05-03T07:32:37;10.60;99.90
17687;DHT22;8962;52.538;13.266;2023-05-03T07:35:05;10.70;99.90
17687;DHT22;8962;52.538;13.266;2023-05-03T07:37:34;10.80;99.90
17687;DHT22;8962;52.538;13.266;2023-05-03T07:40:04;10.90;99.90
17687;DHT22;8962;52.538;13.266;2023-05-03T07:42:32;11.00;99.90
17687;DHT22;8962;52.538;13.266;2023-05-03T07:44:59;11.00;99.90
17687;DHT22;8962;52.538;13.266;2023-05-03T07:47:27;11.10;99.90
17687;DHT22;8962;52.538;13.266;2023-05-03T07:49:54;11.20;99.90
17687;DHT22;8962;52.538;13.266;2023-05-03T07:52:21;11.40;99.90
17687;DHT22;8962;52.538;13.266;2023-05-03T07:54:49;11.30;99.90
17687;DHT22;8962;52.538;13.266;2023-05-03T07:57:18;11.40;99.90
17687;DHT22;8962;52.538;13.266;2023-05-03T07:59:48;11.50;99.90
17687;DHT22;8962;52.538;13.266;2023-05-03T08:02:15;11.60;99.90
17687;DHT22;8962;52.538;13.266;2023-05-03T08:04:45;11.80;99.90
17687;DHT22;8962;52.538;13.266;2023-05-03T08:07:12;12.10;99.90
17687;DHT22;8962;52.538;13.266;2023-05-03T08:09:39;12.20;99.90
17687;DHT22;8962;52.538;13.266;2023-05-03T08:12:08;12.00;99.90
17687;DHT22;8962;52.538;13.266;2023-05-03T08:14:35;12.00;99.90
17687;DHT22;8962;52.538;13.266;2023-05-03T08:17:02;12.10;99.90
17687;DHT22;8962;52.538;13.266;2023-05-03T08:19:30;12.30;99.90
17687;DHT22;8962;52.538;13.266;2023-05-03T08:21:57;12.40;99.90
17687;DHT22;8962;52.538;13.266;2023-05-03T08:24:25;12.70;99.90
17687;DHT22;8962;52.538;13.266;2023-05-03T08:26:52;12.40;99.90
17687;DHT22;8962;52.538;13.266;2023-05-03T08:29:21;12.40;99.90
17687;DHT22;8962;52.538;13.266;2023-05-03T08:31:48;12.40;99.90
17687;DHT22;8962;52.538;13.266;2023-05-03T08:34:15;12.50;99.90
17687;DHT22;8962;52.538;13.266;2023-05-03T08:36:42;12.60;99.90
17687;DHT22;8962;52.538;13.266;2023-05-03T08:39:10;12.50;99.90
17687;DHT22;8962;52.538;13.266;2023-05-03T08:41:40;12.80;99.90
17687;DHT22;8962;52.538;13.266;2023-05-03T08:44:11;12.80;99.90
17687;DHT22;8962;52.538;13.266;2023-05-03T08:46:42;13.00;99.90
17687;DHT22;8962;52.538;13.266;2023-05-03T08:49:09;13.30;99.90
17687;DHT22;8962;52.538;13.266;2023-05-03T08:51:39;13.30;99.90
17687;DHT22;8962;52.538;13.266;2023-05-03T08:54:07;13.10;99.90
17687;DHT22;8962;52.538;13.266;2023-05-03T08:56:43;12.90;99.90
17687;DHT22;8962;52.538;13.266;2023-05-03T08:59:12;12.90;99.90
17687;DHT22;8962;52.538;13.266;2023-05-03T09:01:43;12.90;99.90
17687;DHT22;8962;52.538;13.266;2023-05-03T09:04:11;13.00;99.90
17687;DHT22;8962;52.538;13.266;2023-05-03T09:06:38;13.10;99.90
17687;DHT22;8962;52.538;13.266;2023-05-03T09:09:06;13.20;99.90
17687;DHT22;8962;52.538;13.266;2023-05-03T09:11:35;13.60;99.90
17687;DHT22;8962;52.538;13.266;2023-05-03T09:14:11;13.50;99.90
17687;DHT22;8962;52.538;13.266;2023-05-03T09:16:41;13.20;99.90
17687;DHT22;8962;52.538;13.266;2023-05-03T09:19:11;13.50;99.90
17687;DHT22;8962;52.538;13.266;2023-05-03T09:21:41;13.50;99.90
17687;DHT22;8962;52.538;13.266;2023-05-03T09:24:12;13.60;99.90
17687;DHT22;8962;52.538;13.266;2023-05-03T09:26:40;13.90;99.90
17687;DHT22;8962;52.538;13.266;2023-05-03T09:29:08;13.90;99.90
17687;DHT22;8962;52.538;13.266;2023-05-03T09:31:36;13.90;99.90
17687;DHT22;8962;52.538;13.266;2023-05-03T09:34:21;14.10;99.90
17687;DHT22;8962;52.538;13.266;2023-05-03T09:36:48;13.90;99.90
17687;DHT22;8962;52.538;13.266;2023-05-03T09:39:16;14.00;99.90
17687;DHT22;8962;52.538;13.266;2023-05-03T09:41:44;14.00;99.90
17687;DHT22;8962;52.538;13.266;2023-05-03T09:44:11;13.90;99.90
17687;DHT22;8962;52.538;13.266;2023-05-03T09:46:38;14.20;99.90
17687;DHT22;8962;52.538;13.266;2023-05-03T09:49:05;14.50;99.90
17687;DHT22;8962;52.538;13.266;2023-05-03T09:51:34;14.70;99.90
17687;DHT22;8962;52.538;13.266;2023-05-03T09:54:02;14.50;99.90
17687;DHT22;8962;52.538;13.266;2023-05-03T09:56:29;14.50;99.80
17687;DHT22;8962;52.538;13.266;2023-05-03T09:58:57;14.30;99.90
17687;DHT22;8962;52.538;13.266;2023-05-03T10:01:25;14.40;99.90
17687;DHT22;8962;52.538;13.266;2023-05-03T10:03:55;14.50;99.90
17687;DHT22;8962;52.538;13.266;2023-05-03T10:06:25;14.50;99.90
17687;DHT22;8962;52.538;13.266;2023-05-03T10:09:01;14.30;99.70
17687;DHT22;8962;52.538;13.266;2023-05-03T10:11:33;14.20;99.90
17687;DHT22;8962;52.538;13.266;2023-05-03T10:14:01;14.30;99.90
17687;DHT22;8962;52.538;13.266;2023-05-03T10:16:30;14.10;99.90
17687;DHT22;8962;52.538;13.266;2023-05-03T10:19:05;13.90;99.90
17687;DHT22;8962;52.538;13.266;2023-05-03T10:21:41;13.60;99.90
17687;DHT22;8962;52.538;13.266;2023-05-03T10:24:15;13.50;99.90
17687;DHT22;8962;52.538;13.266;2023-05-03T10:26:44;13.40;99.90
17687;DHT22;8962;52.538;13.266;2023-05-03T10:29:49;13.20;99.90
17687;DHT22;8962;52.538;13.266;2023-05-03T10:32:36;13.50;99.90
17687;DHT22;8962;52.538;13.266;2023-05-03T10:35:08;14.20;99.90
17687;DHT22;8962;52.538;13.266;2023-05-03T10:37:36;14.60;99.90
17687;DHT22;8962;52.538;13.266;2023-05-03T10:40:10;14.90;99.80
17687;DHT22;8962;52.538;13.266;2023-05-03T10:42:39;14.70;99.90
17687;DHT22;8962;52.538;13.266;2023-05-03T10:45:19;14.50;99.90
17687;DHT22;8962;52.538;13.266;2023-05-03T10:48:14;14.10;99.90
17687;DHT22;8962;52.538;13.266;2023-05-03T10:50:45;13.80;99.90
17687;DHT22;8962;52.538;13.266;2023-05-03T10:53:36;14.20;99.90
17687;DHT22;8962;52.538;13.266;2023-05-03T10:56:06;14.50;99.90
17687;DHT22;8962;52.538;13.266;2023-05-03T10:58:35;14.50;99.80
17687;DHT22;8962;52.538;13.266;2023-05-03T11:01:04;14.60;99.40
17687;DHT22;8962;52.538;13.266;2023-05-03T11:03:42;14.70;99.20
17687;DHT22;8962;52.538;13.266;2023-05-03T11:06:26;14.50;99.30
17687;DHT22;8962;52.538;13.266;2023-05-03T11:08:53;14.20;99.70
17687;DHT22;8962;52.538;13.266;2023-05-03T11:11:22;14.50;99.50
17687;DHT22;8962;52.538;13.266;2023-05-03T11:13:49;14.60;99.00
17687;DHT22;8962;52.538;13.266;2023-05-03T11:16:17;14.90;99.00
17687;DHT22;8962;52.538;13.266;2023-05-03T11:18:45;15.20;98.70
17687;DHT22;8962;52.538;13.266;2023-05-03T11:21:13;15.00;98.70
17687;DHT22;8962;52.538;13.266;2023-05-03T11:23:42;14.80;98.70
17687;DHT22;8962;52.538;13.266;2023-05-03T11:26:10;15.00;99.20
17687;DHT22;8962;52.538;13.266;2023-05-03T11:28:39;15.30;99.90
17687;DHT22;8962;52.538;13.266;2023-05-03T11:31:07;16.10;97.00
17687;DHT22;8962;52.538;13.266;2023-05-03T11:33:35;17.60;94.20
17687;DHT22;8962;52.538;13.266;2023-05-03T11:36:04;19.00;90.40
17687;DHT22;8962;52.538;13.266;2023-05-03T11:38:32;20.00;82.10
17687;DHT22;8962;52.538;13.266;2023-05-03T11:41:00;20.50;72.70
17687;DHT22;8962;52.538;13.266;2023-05-03T11:43:41;19.20;74.10
17687;DHT22;8962;52.538;13.266;2023-05-03T11:46:08;18.50;78.90
17687;DHT22;8962;52.538;13.266;2023-05-03T11:48:37;18.30;79.90
17687;DHT22;8962;52.538;13.266;2023-05-03T11:51:07;18.60;77.40
17687;DHT22;8962;52.538;13.266;2023-05-03T11:53:36;19.10;72.00
17687;DHT22;8962;52.538;13.266;2023-05-03T11:56:08;19.60;72.60
17687;DHT22;8962;52.538;13.266;2023-05-03T11:58:50;19.30;70.40
17687;DHT22;8962;52.538;13.266;2023-05-03T12:01:18;18.80;72.00
17687;DHT22;8962;52.538;13.266;2023-05-03T12:03:51;19.80;70.20
17687;DHT22;8962;52.538;13.266;2023-05-03T12:06:19;19.90;67.80
17687;DHT22;8962;52.538;13.266;2023-05-03T12:08:46;20.80;65.80
17687;DHT22;8962;52.538;13.266;2023-05-03T12:11:13;21.70;61.00
17687;DHT22;8962;52.538;13.266;2023-05-03T12:13:41;22.60;55.80
17687;DHT22;8962;52.538;13.266;2023-05-03T12:16:10;22.40;53.60
17687;DHT22;8962;52.538;13.266;2023-05-03T12:18:47;21.20;54.70
17687;DHT22;8962;52.538;13.266;2023-05-03T12:21:16;20.70;55.00
17687;DHT22;8962;52.538;13.266;2023-05-03T12:23:44;21.20;53.70
17687;DHT22;8962;52.538;13.266;2023-05-03T12:26:11;22.20;50.70
17687;DHT22;8962;52.538;13.266;2023-05-03T12:28:39;23.30;46.30
17687;DHT22;8962;52.538;13.266;2023-05-03T12:31:06;22.80;45.30
17687;DHT22;8962;52.538;13.266;2023-05-03T12:33:34;22.40;48.00
17687;DHT22;8962;52.538;13.266;2023-05-03T12:36:02;23.00;47.30
17687;DHT22;8962;52.538;13.266;2023-05-03T12:38:29;23.70;43.70
17687;DHT22;8962;52.538;13.266;2023-05-03T12:40:56;24.60;42.70
17687;DHT22;8962;52.538;13.266;2023-05-03T12:43:25;25.00;39.60
17687;DHT22;8962;52.538;13.266;2023-05-03T12:45:52;25.10;36.30
17687;DHT22;8962;52.538;13.266;2023-05-03T12:48:19;25.10;35.90
17687;DHT22;8962;52.538;13.266;2023-05-03T12:50:52;24.90;37.30
17687;DHT22;8962;52.538;13.266;2023-05-03T12:53:19;25.20;36.00
17687;DHT22;8962;52.538;13.266;2023-05-03T12:55:47;25.60;35.30
17687;DHT22;8962;52.538;13.266;2023-05-03T12:58:16;23.80;36.10
17687;DHT22;8962;52.538;13.266;2023-05-03T13:00:43;24.00;36.00
17687;DHT22;8962;52.538;13.266;2023-05-03T13:03:12;22.90;38.60
17687;DHT22;8962;52.538;13.266;2023-05-03T13:05:40;23.70;38.40
17687;DHT22;8962;52.538;13.266;2023-05-03T13:08:09;24.50;37.80
17687;DHT22;8962;52.538;13.266;2023-05-03T13:10:36;24.20;37.20
17687;DHT22;8962;52.538;13.266;2023-05-03T13:13:06;24.90;36.10
17687;DHT22;8962;52.538;13.266;2023-05-03T13:15:34;26.10;34.10
17687;DHT22;8962;52.538;13.266;2023-05-03T13:18:04;25.30;36.40
17687;DHT22;8962;52.538;13.266;2023-05-03T13:20:32;24.80;35.60
17687;DHT22;8962;52.538;13.266;2023-05-03T13:23:00;25.70;34.00
17687;DHT22;8962;52.538;13.266;2023-05-03T13:25:30;25.70;32.70
17687;DHT22;8962;52.538;13.266;2023-05-03T13:27:59;26.70;31.30
17687;DHT22;8962;52.538;13.266;2023-05-03T13:30:26;27.40;29.70
17687;DHT22;8962;52.538;13.266;2023-05-03T13:32:53;26.60;30.30
17687;DHT22;8962;52.538;13.266;2023-05-03T13:35:20;26.30;30.10
17687;DHT22;8962;52.538;13.266;2023-05-03T13:37:47;26.20;31.10
17687;DHT22;8962;52.538;13.266;2023-05-03T13:40:15;26.70;30.10
17687;DHT22;8962;52.538;13.266;2023-05-03T13:42:44;27.20;30.10
17687;DHT22;8962;52.538;13.266;2023-05-03T13:45:12;26.10;31.00
17687;DHT22;8962;52.538;13.266;2023-05-03T13:47:39;25.90;31.80
17687;DHT22;8962;52.538;13.266;2023-05-03T13:50:07;25.00;32.50
17687;DHT22;8962;52.538;13.266;2023-05-03T13:52:34;23.80;33.70
17687;DHT22;8962;52.538;13.266;2023-05-03T13:55:01;25.30;32.90
17687;DHT22;8962;52.538;13.266;2023-05-03T13:57:29;26.80;30.30
17687;DHT22;8962;52.538;13.266;2023-05-03T13:59:58;26.50;29.80
17687;DHT22;8962;52.538;13.266;2023-05-03T14:02:25;26.40;29.30
17687;DHT22;8962;52.538;13.266;2023-05-03T14:04:52;27.70;28.90
17687;DHT22;8962;52.538;13.266;2023-05-03T14:07:19;27.20;28.30
17687;DHT22;8962;52.538;13.266;2023-05-03T14:09:46;27.40;27.80
17687;DHT22;8962;52.538;13.266;2023-05-03T14:12:13;28.30;27.70
17687;DHT22;8962;52.538;13.266;2023-05-03T14:14:40;28.70;26.90
17687;DHT22;8962;52.538;13.266;2023-05-03T14:17:09;28.60;27.00
17687;DHT22;8962;52.538;13.266;2023-05-03T14:19:36;27.80;27.10
17687;DHT22;8962;52.538;13.266;2023-05-03T14:22:04;28.00;26.80
17687;DHT22;8962;52.538;13.266;2023-05-03T14:24:31;28.80;26.10
17687;DHT22;8962;52.538;13.266;2023-05-03T14:26:58;27.60;26.50
17687;DHT22;8962;52.538;13.266;2023-05-03T14:29:26;26.70;26.90
17687;DHT22;8962;52.538;13.266;2023-05-03T14:31:53;28.10;26.80
17687;DHT22;8962;52.538;13.266;2023-05-03T14:34:23;27.60;26.40
17687;DHT22;8962;52.538;13.266;2023-05-03T14:36:50;26.60;27.20
17687;DHT22;8962;52.538;13.266;2023-05-03T14:39:17;28.10;26.70
17687;DHT22;8962;52.538;13.266;2023-05-03T14:41:46;27.40;26.90
17687;DHT22;8962;52.538;13.266;2023-05-03T14:44:15;27.20;26.50
17687;DHT22;8962;52.538;13.266;2023-05-03T14:46:42;28.60;25.60
17687;DHT22;8962;52.538;13.266;2023-05-03T14:49:09;29.20;24.80
17687;DHT22;8962;52.538;13.266;2023-05-03T14:51:40;29.00;24.70
17687;DHT22;8962;52.538;13.266;2023-05-03T14:54:07;30.10;23.80
17687;DHT22;8962;52.538;13.266;2023-05-03T14:56:34;29.80;23.20
17687;DHT22;8962;52.538;13.266;2023-05-03T14:59:01;28.60;24.20
17687;DHT22;8962;52.538;13.266;2023-05-03T15:01:29;26.20;26.20
17687;DHT22;8962;52.538;13.266;2023-05-03T15:03:56;26.60;26.90
17687;DHT22;8962;52.538;13.266;2023-05-03T15:06:24;27.20;26.40
17687;DHT22;8962;52.538;13.266;2023-05-03T15:08:54;27.60;25.10
17687;DHT22;8962;52.538;13.266;2023-05-03T15:11:23;28.30;25.20
17687;DHT22;8962;52.538;13.266;2023-05-03T15:13:50;27.70;25.10
17687;DHT22;8962;52.538;13.266;2023-05-03T15:16:17;28.10;25.00
17687;DHT22;8962;52.538;13.266;2023-05-03T15:18:44;28.00;25.50
17687;DHT22;8962;52.538;13.266;2023-05-03T15:21:13;28.40;25.60
17687;DHT22;8962;52.538;13.266;2023-05-03T15:23:41;28.40;25.70
17687;DHT22;8962;52.538;13.266;2023-05-03T15:26:10;28.60;25.60
17687;DHT22;8962;52.538;13.266;2023-05-03T15:28:38;28.40;25.30
17687;DHT22;8962;52.538;13.266;2023-05-03T15:31:05;26.00;27.70
17687;DHT22;8962;52.538;13.266;2023-05-03T15:33:38;26.70;27.20
17687;DHT22;8962;52.538;13.266;2023-05-03T15:36:07;24.50;28.60
17687;DHT22;8962;52.538;13.266;2023-05-03T15:38:36;23.00;30.00
17687;DHT22;8962;52.538;13.266;2023-05-03T15:41:04;21.50;32.50
17687;DHT22;8962;52.538;13.266;2023-05-03T15:43:34;20.10;35.60
17687;DHT22;8962;52.538;13.266;2023-05-03T15:46:01;19.10;37.50
17687;DHT22;8962;52.538;13.266;2023-05-03T15:48:28;18.80;38.40